Time;durP1;ratioP1;P1;durP2;ratioP2;P2;SDS_P1;SDS_P2;PMS_P1;PMS_P2;Temp;Humidity;BMP_temperature;BMP_pressure;BME280_temperature;BME280_humidity;BME280_pressure;Samples;Min_cycle;Max_cycle;Signal;HPM_P1;HPM_P2
2022/11/06 00:00:32;;;;;;;3.22;2.95;;;;;;;;;;5032809;28;20673;-79
2022/11/06 00:02:59;;;;;;;1.02;1.00;;;;;;;;;;5029586;28;20033;-78
2022/11/06 00:08:10;;;;;;;1.20;0.30;;;;;;;;;;5033609;28;20052;-78
2022/11/06 00:10:37;;;;;;;5.15;4.00;;;;;;;;;;5015812;28;20087;-78
2022/11/06 00:13:03;;;;;;;1.75;1.65;;;;;;;;;;5033442;28;20034;-78
2022/11/06 00:15:33;;;;;;;1.65;1.27;;;;;;;;;;5033365;28;20117;-79
2022/11/06 00:17:59;;;;;;;0.32;0.32;;;;;;;;;;5033399;28;20088;-78
2022/11/06 00:20:26;;;;;;;46.88;3.90;;;;;;;;;;5033268;28;20068;-79
2022/11/06 00:22:52;;;;;;;7.10;4.28;;;;;;;;;;5032258;28;20029;-78
2022/11/06 00:25:18;;;;;;;2.63;2.30;;;;;;;;;;5033328;28;20558;-78
2022/11/06 00:27:45;;;;;;;7.10;6.40;;;;;;;;;;5032566;28;20045;-79
2022/11/06 00:30:11;;;;;;;0.73;0.25;;;;;;;;;;5032550;28;20488;-79
2022/11/06 00:32:38;;;;;;;0.00;0.00;;;;;;;;;;5032688;28;20557;-80
2022/11/06 00:35:05;;;;;;;1.63;1.60;;;;;;;;;;5030335;28;20129;-79
2022/11/06 00:37:31;;;;;;;0.00;0.00;;;;;;;;;;5018771;28;20037;-79
2022/11/06 00:39:58;;;;;;;0.00;0.00;;;;;;;;;;5025810;28;20151;-79
2022/11/06 00:42:24;;;;;;;4.95;4.57;;;;;;;;;;5036259;28;20029;-79
2022/11/06 00:44:51;;;;;;;0.00;0.00;;;;;;;;;;5026164;28;20033;-79
2022/11/06 00:47:17;;;;;;;0.10;0.10;;;;;;;;;;5028515;28;20492;-79
2022/11/06 00:49:43;;;;;;;0.00;0.00;;;;;;;;;;5029010;28;20092;-78
2022/11/06 00:52:10;;;;;;;0.00;0.00;;;;;;;;;;5024664;28;20148;-78
2022/11/06 00:54:36;;;;;;;0.00;0.00;;;;;;;;;;5032183;28;20543;-79
2022/11/06 00:57:02;;;;;;;0.00;0.00;;;;;;;;;;5032871;28;20041;-79
2022/11/06 00:59:29;;;;;;;0.00;0.00;;;;;;;;;;5031353;28;20037;-79
2022/11/06 01:01:55;;;;;;;0.00;0.00;;;;;;;;;;5030372;28;20037;-78
2022/11/06 01:04:23;;;;;;;0.00;0.00;;;;;;;;;;5031506;28;20431;-79
2022/11/06 01:06:51;;;;;;;0.00;0.00;;;;;;;;;;5031644;28;20033;-78
2022/11/06 01:09:19;;;;;;;0.00;0.00;;;;;;;;;;5048376;28;20099;-78
2022/11/06 01:11:47;;;;;;;0.00;0.00;;;;;;;;;;5037633;28;20045;-78
2022/11/06 01:14:14;;;;;;;0.90;0.90;;;;;;;;;;5036871;28;20034;-78
2022/11/06 01:16:41;;;;;;;0.10;0.10;;;;;;;;;;5038670;28;20037;-77
2022/11/06 01:19:07;;;;;;;0.00;0.00;;;;;;;;;;5041759;28;20033;-78
2022/11/06 01:21:36;;;;;;;0.00;0.00;;;;;;;;;;5038584;28;20040;-78
2022/11/06 01:24:04;;;;;;;0.00;0.00;;;;;;;;;;5038137;28;20037;-78
2022/11/06 01:26:31;;;;;;;0.47;0.47;;;;;;;;;;5039817;28;20117;-79
2022/11/06 01:28:57;;;;;;;0.00;0.00;;;;;;;;;;5051663;28;20029;-78
2022/11/06 01:31:25;;;;;;;0.00;0.00;;;;;;;;;;5051651;28;20458;-79
2022/11/06 01:33:51;;;;;;;0.05;0.05;;;;;;;;;;5036366;28;20034;-79
2022/11/06 01:36:19;;;;;;;2.40;2.20;;;;;;;;;;5051536;28;20103;-80
2022/11/06 01:38:47;;;;;;;0.13;0.13;;;;;;;;;;5049269;28;20499;-78
2022/11/06 01:41:14;;;;;;;0.05;0.05;;;;;;;;;;5034785;28;20036;-78
2022/11/06 01:43:51;;;;;;;0.00;0.00;;;;;;;;;;5035857;28;20034;-79
2022/11/06 01:46:18;;;;;;;0.88;0.88;;;;;;;;;;5034396;28;20034;-78
2022/11/06 01:48:51;;;;;;;0.00;0.00;;;;;;;;;;5018364;28;20041;-78
2022/11/06 01:51:18;;;;;;;0.00;0.00;;;;;;;;;;5036188;28;20064;-79
2022/11/06 01:53:45;;;;;;;3.00;2.90;;;;;;;;;;5037127;28;20495;-78
2022/11/06 01:56:12;;;;;;;0.00;0.00;;;;;;;;;;5037469;28;20025;-78
2022/11/06 01:58:41;;;;;;;0.00;0.00;;;;;;;;;;5040132;28;20033;-78
2022/11/06 02:01:07;;;;;;;0.00;0.00;;;;;;;;;;5051165;28;20030;-78
2022/11/06 02:03:35;;;;;;;0.17;0.17;;;;;;;;;;5035600;28;20038;-78
2022/11/06 02:06:02;;;;;;;0.00;0.00;;;;;;;;;;5050253;28;20135;-78
2022/11/06 02:08:28;;;;;;;0.15;0.15;;;;;;;;;;5050560;28;20048;-78
2022/11/06 02:10:55;;;;;;;0.00;0.00;;;;;;;;;;5036128;28;20041;-78
2022/11/06 02:13:27;;;;;;;0.30;0.30;;;;;;;;;;5050723;28;20041;-78
2022/11/06 02:15:53;;;;;;;0.55;0.55;;;;;;;;;;5035973;28;20033;-79
2022/11/06 02:18:29;;;;;;;0.10;0.10;;;;;;;;;;5041520;28;20471;-80
2022/11/06 02:21:14;;;;;;;0.00;0.00;;;;;;;;;;5017329;28;20053;-78
2022/11/06 02:23:40;;;;;;;0.00;0.00;;;;;;;;;;5036247;28;20033;-77
2022/11/06 02:26:25;;;;;;;0.17;0.17;;;;;;;;;;5037252;28;20032;-79
2022/11/06 02:28:54;;;;;;;9.25;4.43;;;;;;;;;;5035610;28;20037;-78
2022/11/06 02:31:23;;;;;;;0.00;0.00;;;;;;;;;;5044041;28;20160;-80
2022/11/06 02:33:55;;;;;;;0.00;0.00;;;;;;;;;;5044476;28;20029;-78
2022/11/06 02:36:25;;;;;;;1.85;1.75;;;;;;;;;;5037160;28;20119;-79
2022/11/06 02:38:55;;;;;;;5.22;4.68;;;;;;;;;;5037030;28;20029;-79
2022/11/06 02:41:27;;;;;;;0.00;0.00;;;;;;;;;;5037171;28;20033;-81
2022/11/06 02:43:55;;;;;;;0.45;0.45;;;;;;;;;;5035054;28;20030;-80
2022/11/06 02:46:25;;;;;;;0.00;0.00;;;;;;;;;;5026291;28;20527;-80
2022/11/06 02:48:53;;;;;;;0.10;0.10;;;;;;;;;;5024936;28;20547;-79
2022/11/06 02:51:21;;;;;;;0.80;0.80;;;;;;;;;;5015812;28;20045;-79
2022/11/06 02:53:48;;;;;;;0.15;0.15;;;;;;;;;;5030166;28;20034;-79
2022/11/06 02:56:16;;;;;;;1.38;1.35;;;;;;;;;;5025554;28;20025;-81
2022/11/06 02:58:52;;;;;;;1.70;0.63;;;;;;;;;;5026155;28;20443;-80
2022/11/06 03:01:26;;;;;;;2.25;2.15;;;;;;;;;;5015578;28;20037;-79
2022/11/06 03:03:54;;;;;;;10.02;9.23;;;;;;;;;;5034922;28;20033;-79
2022/11/06 03:06:26;;;;;;;9.82;9.07;;;;;;;;;;5034299;28;20067;-79
2022/11/06 03:09:04;;;;;;;2.50;2.35;;;;;;;;;;5037682;28;20049;-79
2022/11/06 03:11:34;;;;;;;6.35;6.03;;;;;;;;;;5016616;28;20068;-79
2022/11/06 03:14:16;;;;;;;0.03;0.03;;;;;;;;;;5051694;28;20546;-81
2022/11/06 03:16:53;;;;;;;15.40;12.40;;;;;;;;;;5036303;28;20107;-78
2022/11/06 03:19:25;;;;;;;11.57;8.50;;;;;;;;;;5033496;28;20044;-79
2022/11/06 03:22:01;;;;;;;0.45;0.45;;;;;;;;;;5025252;28;20039;-79
2022/11/06 03:24:33;;;;;;;2.42;1.38;;;;;;;;;;5016450;28;20040;-79
2022/11/06 03:27:03;;;;;;;16.40;15.10;;;;;;;;;;5016244;28;20483;-80
2022/11/06 03:29:38;;;;;;;32.65;20.02;;;;;;;;;;5034165;28;20384;-79
2022/11/06 03:32:07;;;;;;;7.28;4.35;;;;;;;;;;5033720;28;20446;-79
2022/11/06 03:34:52;;;;;;;18.88;17.50;;;;;;;;;;5016214;28;20038;-79
2022/11/06 03:37:32;;;;;;;13.32;11.93;;;;;;;;;;5033703;28;20065;-80
2022/11/06 03:40:01;;;;;;;8.10;2.85;;;;;;;;;;5013033;28;20064;-80
2022/11/06 03:42:29;;;;;;;11.18;9.13;;;;;;;;;;5033633;28;20102;-80
2022/11/06 03:45:16;;;;;;;2.55;2.45;;;;;;;;;;5033470;28;20033;-79
2022/11/06 03:47:53;;;;;;;6.03;4.50;;;;;;;;;;5013974;28;20042;-80
2022/11/06 03:50:39;;;;;;;16.23;9.88;;;;;;;;;;5022567;28;20034;-80
2022/11/06 03:53:11;;;;;;;2.42;2.22;;;;;;;;;;5033001;28;20037;-79
2022/11/06 03:55:40;;;;;;;0.57;0.57;;;;;;;;;;5034096;28;20032;-79
2022/11/06 03:58:14;;;;;;;12.90;8.82;;;;;;;;;;5041121;28;20497;-80
2022/11/06 04:00:42;;;;;;;10.25;9.45;;;;;;;;;;5048510;28;20061;-81
2022/11/06 04:03:13;;;;;;;12.32;7.38;;;;;;;;;;5046268;28;20041;-79
2022/11/06 04:05:45;;;;;;;18.60;10.85;;;;;;;;;;5044625;28;20028;-80
2022/11/06 04:13:56;;;;;;;53.88;20.90;;;;;;;;;;5030681;28;20128;-80
2022/11/06 04:16:29;;;;;;;8.38;7.80;;;;;;;;;;5024990;28;20135;-82
2022/11/06 04:18:55;;;;;;;4.50;3.90;;;;;;;;;;5027393;28;20044;-79
2022/11/06 04:21:28;;;;;;;4.53;4.20;;;;;;;;;;5020605;28;20038;-81
2022/11/06 04:26:53;;;;;;;20.33;12.85;;;;;;;;;;5033811;28;20041;-81
2022/11/06 04:29:32;;;;;;;8.30;4.60;;;;;;;;;;5034477;28;20040;-80
2022/11/06 04:32:10;;;;;;;9.15;8.77;;;;;;;;;;5031021;28;20033;-81
2022/11/06 04:34:43;;;;;;;7.78;7.10;;;;;;;;;;5029482;28;20040;-81
2022/11/06 04:37:20;;;;;;;16.85;11.07;;;;;;;;;;5025691;28;20030;-81
2022/11/06 04:39:56;;;;;;;40.05;24.58;;;;;;;;;;5016523;28;20049;-80
2022/11/06 04:42:41;;;;;;;36.50;14.60;;;;;;;;;;5022371;28;20414;-81
2022/11/06 04:45:14;;;;;;;11.75;10.10;;;;;;;;;;5033301;28;20034;-81
2022/11/06 04:47:41;;;;;;;7.72;4.88;;;;;;;;;;5033096;28;20034;-82
2022/11/06 04:50:08;;;;;;;5.20;3.20;;;;;;;;;;5032794;28;20033;-81
2022/11/06 04:52:36;;;;;;;3.38;2.47;;;;;;;;;;5032033;28;20084;-81
2022/11/06 04:55:03;;;;;;;3.75;3.40;;;;;;;;;;5018813;28;20064;-81
2022/11/06 04:57:29;;;;;;;2.00;1.85;;;;;;;;;;5016219;28;20033;-81
2022/11/06 04:59:55;;;;;;;22.75;9.55;;;;;;;;;;5032530;28;20037;-81
2022/11/06 05:02:22;;;;;;;10.05;8.85;;;;;;;;;;5036614;28;20504;-82
2022/11/06 05:04:49;;;;;;;10.20;5.60;;;;;;;;;;5018922;28;20034;-80
2022/11/06 05:07:16;;;;;;;8.18;4.75;;;;;;;;;;5032140;28;20029;-80
2022/11/06 05:09:44;;;;;;;15.55;6.75;;;;;;;;;;5028314;28;20095;-80
2022/11/06 05:12:10;;;;;;;25.88;15.20;;;;;;;;;;5030380;28;20052;-80
2022/11/06 05:14:37;;;;;;;50.55;24.10;;;;;;;;;;5032309;28;20041;-80
2022/11/06 05:17:03;;;;;;;11.98;9.85;;;;;;;;;;5031723;28;20075;-80
2022/11/06 05:19:29;;;;;;;9.10;8.40;;;;;;;;;;5027487;28;20045;-80
2022/11/06 05:24:41;;;;;;;22.05;13.98;;;;;;;;;;5029949;28;20060;-80
2022/11/06 05:27:07;;;;;;;91.13;34.65;;;;;;;;;;5036820;28;20033;-80
2022/11/06 05:29:33;;;;;;;18.42;16.48;;;;;;;;;;5029319;28;20037;-79
2022/11/06 05:32:00;;;;;;;9.88;6.65;;;;;;;;;;5034798;28;20091;-80
2022/11/06 05:34:26;;;;;;;35.10;12.93;;;;;;;;;;5012602;28;20069;-80
2022/11/06 05:36:52;;;;;;;17.85;14.23;;;;;;;;;;5030214;28;20068;-80
2022/11/06 05:39:18;;;;;;;5.07;4.50;;;;;;;;;;5027379;28;20094;-80
2022/11/06 05:41:45;;;;;;;31.83;17.10;;;;;;;;;;5033372;28;20068;-80
2022/11/06 05:44:11;;;;;;;22.95;9.05;;;;;;;;;;5032569;28;20076;-80
2022/11/06 05:46:37;;;;;;;35.33;12.95;;;;;;;;;;5032761;28;20083;-80
2022/11/06 05:49:04;;;;;;;30.38;19.73;;;;;;;;;;5038570;28;20056;-80
2022/11/06 05:51:30;;;;;;;34.70;18.13;;;;;;;;;;5030475;28;22045;-79
2022/11/06 05:53:56;;;;;;;9.10;7.97;;;;;;;;;;5047042;28;20056;-79
2022/11/06 05:56:23;;;;;;;32.53;15.75;;;;;;;;;;5052364;28;20037;-80
2022/11/06 05:58:49;;;;;;;11.30;10.35;;;;;;;;;;5046335;28;20041;-80
2022/11/06 06:01:15;;;;;;;38.88;22.85;;;;;;;;;;5046434;28;20056;-80
2022/11/06 06:03:42;;;;;;;31.15;19.33;;;;;;;;;;5037156;28;20061;-81
2022/11/06 06:06:08;;;;;;;29.80;13.40;;;;;;;;;;5037336;28;20495;-81
2022/11/06 06:08:34;;;;;;;5.65;5.10;;;;;;;;;;5029039;28;20084;-81
2022/11/06 06:11:05;;;;;;;3.88;3.35;;;;;;;;;;5026351;28;20081;-81
2022/11/06 06:13:31;;;;;;;7.00;5.40;;;;;;;;;;5019215;28;20034;-81
2022/11/06 06:16:01;;;;;;;22.08;17.20;;;;;;;;;;5018746;28;20030;-81
2022/11/06 06:18:27;;;;;;;9.40;7.97;;;;;;;;;;5010170;28;20034;-80
2022/11/06 06:20:53;;;;;;;21.95;14.25;;;;;;;;;;5015470;28;20033;-80
2022/11/06 06:23:20;;;;;;;40.15;17.23;;;;;;;;;;4997819;28;20038;-80
2022/11/06 06:25:46;;;;;;;39.35;16.35;;;;;;;;;;5016028;28;20030;-80
2022/11/06 06:28:12;;;;;;;81.38;38.10;;;;;;;;;;5011980;28;20403;-80
2022/11/06 06:30:39;;;;;;;42.60;20.98;;;;;;;;;;5013395;28;20493;-80
2022/11/06 06:33:06;;;;;;;3.15;3.03;;;;;;;;;;5012895;28;20072;-80
2022/11/06 06:35:32;;;;;;;17.05;9.18;;;;;;;;;;5015138;28;20200;-80
2022/11/06 06:37:59;;;;;;;43.30;23.90;;;;;;;;;;5015720;28;20037;-80
2022/11/06 06:40:25;;;;;;;2.47;2.38;;;;;;;;;;5031646;28;20047;-80
2022/11/06 06:42:55;;;;;;;13.95;7.93;;;;;;;;;;5018101;28;20096;-80
2022/11/06 06:45:21;;;;;;;16.40;9.00;;;;;;;;;;5016324;28;20525;-79
2022/11/06 06:47:47;;;;;;;10.60;8.63;;;;;;;;;;5020321;28;20029;-78
2022/11/06 06:50:14;;;;;;;90.93;36.38;;;;;;;;;;5030294;28;20042;-79
2022/11/06 06:52:40;;;;;;;2.03;1.75;;;;;;;;;;5024325;28;20034;-80
2022/11/06 06:55:06;;;;;;;48.08;20.67;;;;;;;;;;5016932;28;20076;-80
2022/11/06 06:57:33;;;;;;;4.18;3.85;;;;;;;;;;5019309;28;20526;-80
2022/11/06 06:59:59;;;;;;;3.05;2.90;;;;;;;;;;5015218;28;20480;-80
2022/11/06 07:02:25;;;;;;;4.43;4.03;;;;;;;;;;5005873;28;20061;-80
2022/11/06 07:04:52;;;;;;;36.00;19.33;;;;;;;;;;5013385;28;20044;-81
2022/11/06 07:07:18;;;;;;;2.05;1.95;;;;;;;;;;5014745;28;20084;-79
2022/11/06 07:09:44;;;;;;;0.38;0.38;;;;;;;;;;5034071;28;20496;-81
2022/11/06 07:12:11;;;;;;;3.08;2.65;;;;;;;;;;5040137;28;20033;-80
2022/11/06 07:14:37;;;;;;;2.17;0.55;;;;;;;;;;5034688;28;20032;-80
2022/11/06 07:17:03;;;;;;;17.80;16.15;;;;;;;;;;5031585;28;20034;-80
2022/11/06 07:19:30;;;;;;;3.40;3.10;;;;;;;;;;5014719;28;20037;-81
2022/11/06 07:21:56;;;;;;;6.95;6.20;;;;;;;;;;5027717;28;20496;-81
2022/11/06 07:24:22;;;;;;;4.95;2.60;;;;;;;;;;5016072;28;20038;-81
2022/11/06 07:26:48;;;;;;;0.28;0.28;;;;;;;;;;5034405;28;20057;-81
2022/11/06 07:29:15;;;;;;;10.07;9.52;;;;;;;;;;5034292;28;20029;-81
2022/11/06 07:31:41;;;;;;;6.15;5.85;;;;;;;;;;5033286;28;20037;-79
2022/11/06 07:34:07;;;;;;;25.55;11.63;;;;;;;;;;5015561;28;20037;-80
2022/11/06 07:36:35;;;;;;;10.95;6.78;;;;;;;;;;5033687;28;20037;-80
2022/11/06 07:39:01;;;;;;;37.28;20.77;;;;;;;;;;5027228;28;20040;-80
2022/11/06 07:41:27;;;;;;;7.15;6.57;;;;;;;;;;5016429;28;20391;-80
2022/11/06 07:43:54;;;;;;;2.65;2.33;;;;;;;;;;5017993;28;20040;-80
2022/11/06 07:46:20;;;;;;;9.50;7.63;;;;;;;;;;5049288;28;20033;-81
2022/11/06 07:48:47;;;;;;;32.90;16.83;;;;;;;;;;5015937;28;20057;-81
2022/11/06 07:51:13;;;;;;;11.48;10.35;;;;;;;;;;5033863;28;20567;-80
2022/11/06 07:53:40;;;;;;;4.75;2.53;;;;;;;;;;5040410;28;20422;-81
2022/11/06 07:56:07;;;;;;;5.25;4.82;;;;;;;;;;5023769;28;20124;-81
2022/11/06 07:58:34;;;;;;;18.60;12.00;;;;;;;;;;5042496;28;20131;-81
2022/11/06 08:01:01;;;;;;;6.50;4.57;;;;;;;;;;5043138;28;20483;-81
2022/11/06 08:03:30;;;;;;;4.65;4.45;;;;;;;;;;5038051;28;20025;-79
2022/11/06 08:05:57;;;;;;;5.22;4.88;;;;;;;;;;5033702;28;20087;-80
2022/11/06 08:08:24;;;;;;;21.20;19.90;;;;;;;;;;5031976;28;20128;-79
2022/11/06 08:10:52;;;;;;;17.48;11.57;;;;;;;;;;5031841;28;20080;-78
2022/11/06 08:13:19;;;;;;;3.70;3.40;;;;;;;;;;5035099;28;20029;-81
2022/11/06 08:15:45;;;;;;;21.35;12.90;;;;;;;;;;5028009;28;20041;-79
2022/11/06 08:18:11;;;;;;;14.45;13.35;;;;;;;;;;5013997;28;20048;-79
2022/11/06 08:20:38;;;;;;;4.07;3.78;;;;;;;;;;5031682;28;20049;-79
2022/11/06 08:23:06;;;;;;;8.00;7.38;;;;;;;;;;5032153;28;20100;-80
2022/11/06 08:25:32;;;;;;;16.90;9.68;;;;;;;;;;5032424;28;20160;-79
2022/11/06 08:27:59;;;;;;;11.68;5.10;;;;;;;;;;5026574;28;20041;-79
2022/11/06 08:30:26;;;;;;;10.45;9.80;;;;;;;;;;5017947;28;20040;-79
2022/11/06 08:32:53;;;;;;;9.02;7.63;;;;;;;;;;5028465;28;20045;-79
2022/11/06 08:35:19;;;;;;;4.60;4.15;;;;;;;;;;5015285;28;20056;-79
2022/11/06 08:37:46;;;;;;;14.02;13.07;;;;;;;;;;5023678;28;20377;-77
2022/11/06 08:40:12;;;;;;;12.52;11.25;;;;;;;;;;5031288;28;20365;-80
2022/11/06 08:42:39;;;;;;;20.05;18.13;;;;;;;;;;5012164;28;20034;-80
2022/11/06 08:45:06;;;;;;;19.55;17.77;;;;;;;;;;5017211;28;20029;-80
2022/11/06 08:47:32;;;;;;;13.25;12.20;;;;;;;;;;5027038;28;20033;-80
2022/11/06 08:49:58;;;;;;;21.98;13.57;;;;;;;;;;5030610;28;20033;-80
2022/11/06 08:52:24;;;;;;;11.07;9.60;;;;;;;;;;5029550;28;20496;-80
2022/11/06 08:54:51;;;;;;;6.93;6.32;;;;;;;;;;5033959;28;20038;-80
2022/11/06 08:57:17;;;;;;;14.23;8.82;;;;;;;;;;5037231;28;20033;-81
2022/11/06 08:59:44;;;;;;;3.88;3.67;;;;;;;;;;5032467;28;20121;-85
2022/11/06 09:02:13;;;;;;;10.75;7.55;;;;;;;;;;5033477;28;20392;-81
2022/11/06 09:04:40;;;;;;;5.82;5.25;;;;;;;;;;5035312;28;20037;-79
2022/11/06 09:07:07;;;;;;;6.32;3.72;;;;;;;;;;5030461;28;20099;-80
2022/11/06 09:09:33;;;;;;;7.22;6.60;;;;;;;;;;5028236;28;20061;-81
2022/11/06 09:12:00;;;;;;;6.13;5.50;;;;;;;;;;5031344;28;20053;-82
2022/11/06 09:14:26;;;;;;;3.15;2.95;;;;;;;;;;5010027;28;20120;-80
2022/11/06 09:16:53;;;;;;;25.70;11.15;;;;;;;;;;5014960;28;20514;-80
2022/11/06 09:19:20;;;;;;;14.45;10.73;;;;;;;;;;5027367;28;20207;-80
2022/11/06 09:21:47;;;;;;;4.70;4.15;;;;;;;;;;5032262;28;20061;-80
2022/11/06 09:24:13;;;;;;;25.48;12.70;;;;;;;;;;5032415;28;20049;-80
2022/11/06 09:26:39;;;;;;;10.75;6.93;;;;;;;;;;5030475;28;20292;-80
2022/11/06 09:29:06;;;;;;;23.73;13.85;;;;;;;;;;5029239;28;20095;-80
2022/11/06 09:31:32;;;;;;;7.95;3.45;;;;;;;;;;5027137;28;20046;-78
2022/11/06 09:33:59;;;;;;;20.33;14.52;;;;;;;;;;5017416;28;20125;-79
2022/11/06 09:36:25;;;;;;;32.75;12.90;;;;;;;;;;5032793;28;20042;-80
2022/11/06 09:38:51;;;;;;;4.82;4.30;;;;;;;;;;5036080;28;20468;-80
2022/11/06 09:41:33;;;;;;;57.03;31.55;;;;;;;;;;5030527;28;20036;-80
2022/11/06 09:43:59;;;;;;;0.00;0.00;;;;;;;;;;5019524;28;20485;-80
2022/11/06 09:46:38;;;;;;;2.67;2.58;;;;;;;;;;5031486;28;20061;-81
2022/11/06 09:49:07;;;;;;;13.32;5.45;;;;;;;;;;5027454;28;20026;-80
2022/11/06 09:52:01;;;;;;;13.10;10.52;;;;;;;;;;5022786;28;20037;-79
2022/11/06 09:54:31;;;;;;;32.95;9.18;;;;;;;;;;5013899;28;20037;-82
2022/11/06 09:57:17;;;;;;;29.98;11.20;;;;;;;;;;5025179;28;20104;-79
2022/11/06 09:59:44;;;;;;;8.38;7.68;;;;;;;;;;5034528;28;20211;-80
2022/11/06 10:02:23;;;;;;;7.93;7.18;;;;;;;;;;5033697;28;20487;-78
2022/11/06 10:04:53;;;;;;;38.67;34.47;;;;;;;;;;5032911;28;20475;-80
2022/11/06 10:07:27;;;;;;;8.77;8.07;;;;;;;;;;5032529;28;20030;-79
2022/11/06 10:09:53;;;;;;;2.78;2.58;;;;;;;;;;5032175;28;20120;-79
2022/11/06 10:12:45;;;;;;;8.00;4.38;;;;;;;;;;5034622;28;20049;-79
2022/11/06 10:15:22;;;;;;;2.00;1.90;;;;;;;;;;5003277;28;20041;-79
2022/11/06 10:18:07;;;;;;;4.07;3.78;;;;;;;;;;5034941;28;20067;-80
2022/11/06 10:20:53;;;;;;;0.00;0.00;;;;;;;;;;5016178;28;20046;-79
2022/11/06 10:23:30;;;;;;;29.67;16.60;;;;;;;;;;5024255;28;20030;-79
2022/11/06 10:26:11;;;;;;;12.20;11.18;;;;;;;;;;5032664;28;20371;-80
2022/11/06 10:28:56;;;;;;;13.68;12.57;;;;;;;;;;5033197;28;20030;-80
2022/11/06 10:31:28;;;;;;;7.82;5.45;;;;;;;;;;5040547;28;20073;-79
2022/11/06 10:33:59;;;;;;;12.95;10.77;;;;;;;;;;5035460;28;20064;-81
2022/11/06 10:36:31;;;;;;;3.63;3.33;;;;;;;;;;5042520;28;20043;-80
2022/11/06 10:38:58;;;;;;;15.77;13.23;;;;;;;;;;5033235;28;20029;-80
2022/11/06 10:41:28;;;;;;;10.10;9.27;;;;;;;;;;5033560;28;20080;-80
2022/11/06 10:43:59;;;;;;;18.73;17.30;;;;;;;;;;5027456;28;20026;-80
2022/11/06 10:46:25;;;;;;;39.20;20.63;;;;;;;;;;5034482;28;20040;-80
2022/11/06 10:48:55;;;;;;;5.25;4.72;;;;;;;;;;5044404;28;20128;-80
2022/11/06 10:51:28;;;;;;;48.10;14.25;;;;;;;;;;5031833;28;20038;-80
2022/11/06 10:53:54;;;;;;;87.82;37.92;;;;;;;;;;5018391;28;20033;-79
2022/11/06 10:56:20;;;;;;;17.48;12.45;;;;;;;;;;5031880;28;20472;-80
2022/11/06 10:58:47;;;;;;;34.15;18.23;;;;;;;;;;5032219;28;20102;-78
2022/11/06 11:01:14;;;;;;;9.02;7.72;;;;;;;;;;5033232;28;20071;-80
2022/11/06 11:03:42;;;;;;;27.52;17.10;;;;;;;;;;5020215;28;20026;-80
2022/11/06 11:06:08;;;;;;;9.30;8.05;;;;;;;;;;5036458;28;20030;-79
2022/11/06 11:08:36;;;;;;;16.67;9.25;;;;;;;;;;5029140;28;20034;-80
2022/11/06 11:11:05;;;;;;;6.07;5.57;;;;;;;;;;5028831;28;20037;-77
2022/11/06 11:13:32;;;;;;;43.42;20.55;;;;;;;;;;5032542;28;20053;-77
2022/11/06 11:15:58;;;;;;;17.83;16.00;;;;;;;;;;5030227;28;20487;-78
2022/11/06 11:18:30;;;;;;;8.48;7.68;;;;;;;;;;5030864;28;20120;-81
2022/11/06 11:21:19;;;;;;;2.17;2.08;;;;;;;;;;5030986;28;20034;-81
2022/11/06 11:23:46;;;;;;;2.67;2.30;;;;;;;;;;5017830;28;20472;-81
2022/11/06 11:26:19;;;;;;;5.43;2.30;;;;;;;;;;5025616;28;20033;-82
2022/11/06 11:28:51;;;;;;;18.92;8.82;;;;;;;;;;5033202;28;20038;-79
2022/11/06 11:31:17;;;;;;;4.32;4.13;;;;;;;;;;5031510;28;20392;-80
2022/11/06 11:33:52;;;;;;;21.17;10.02;;;;;;;;;;5038727;28;20033;-80
2022/11/06 11:36:19;;;;;;;16.13;12.05;;;;;;;;;;5039064;28;20034;-82
2022/11/06 11:38:45;;;;;;;6.65;6.10;;;;;;;;;;5042285;28;20037;-81
2022/11/06 11:41:13;;;;;;;11.00;9.88;;;;;;;;;;5040898;28;20396;-81
2022/11/06 11:43:41;;;;;;;3.60;1.30;;;;;;;;;;5039999;28;20063;-81
2022/11/06 11:46:11;;;;;;;21.45;10.10;;;;;;;;;;5004363;28;20029;-80
2022/11/06 11:48:43;;;;;;;2.22;2.13;;;;;;;;;;5030967;28;20029;-80
2022/11/06 11:51:32;;;;;;;36.42;15.65;;;;;;;;;;5031283;28;20037;-80
2022/11/06 11:54:02;;;;;;;10.93;9.93;;;;;;;;;;5017310;28;20120;-80
2022/11/06 11:56:29;;;;;;;3.47;2.17;;;;;;;;;;5030949;28;20041;-80
2022/11/06 11:58:56;;;;;;;4.07;3.97;;;;;;;;;;5033454;28;20484;-80
2022/11/06 12:01:33;;;;;;;4.38;4.13;;;;;;;;;;5034770;28;20037;-81
2022/11/06 12:03:59;;;;;;;2.35;2.15;;;;;;;;;;5059744;28;20033;-79
2022/11/06 12:06:33;;;;;;;18.20;12.27;;;;;;;;;;5035194;28;20029;-80
2022/11/06 12:08:59;;;;;;;72.85;25.55;;;;;;;;;;5011528;28;20045;-81
2022/11/06 12:11:27;;;;;;;13.52;11.00;;;;;;;;;;5030376;28;20103;-81
2022/11/06 12:14:12;;;;;;;5.88;3.42;;;;;;;;;;5030316;28;20450;-80
2022/11/06 12:16:41;;;;;;;14.88;10.73;;;;;;;;;;5025902;28;20026;-81
2022/11/06 12:19:09;;;;;;;40.58;21.33;;;;;;;;;;5048719;28;20017;-80
2022/11/06 12:21:39;;;;;;;31.30;20.50;;;;;;;;;;5037933;28;20064;-81
2022/11/06 12:24:11;;;;;;;20.63;9.93;;;;;;;;;;5028888;28;20026;-80
2022/11/06 12:26:43;;;;;;;31.15;13.75;;;;;;;;;;5012446;28;20059;-81
2022/11/06 12:29:18;;;;;;;7.85;6.30;;;;;;;;;;5031575;28;20029;-81
2022/11/06 12:31:51;;;;;;;5.88;5.45;;;;;;;;;;5024347;28;20108;-81
2022/11/06 12:34:28;;;;;;;0.63;0.63;;;;;;;;;;5025908;28;20042;-81
2022/11/06 12:37:01;;;;;;;0.90;0.90;;;;;;;;;;5011814;28;20030;-81
2022/11/06 12:39:29;;;;;;;29.02;20.10;;;;;;;;;;5029953;28;20125;-81
2022/11/06 12:41:56;;;;;;;30.27;17.70;;;;;;;;;;5021186;28;20037;-79
2022/11/06 12:44:22;;;;;;;11.00;5.25;;;;;;;;;;5022520;28;20036;-80
2022/11/06 12:46:57;;;;;;;97.82;36.78;;;;;;;;;;5019384;28;20034;-80
2022/11/06 12:49:56;;;;;;;15.15;9.70;;;;;;;;;;5031227;28;20037;-80
2022/11/06 12:52:42;;;;;;;96.20;36.17;;;;;;;;;;4959111;28;20547;-81
2022/11/06 12:55:18;;;;;;;54.35;27.33;;;;;;;;;;5027878;28;20041;-80
2022/11/06 12:57:57;;;;;;;23.88;13.60;;;;;;;;;;5029824;28;20045;-80
2022/11/06 13:00:25;;;;;;;61.60;26.33;;;;;;;;;;5027263;28;20484;-81
2022/11/06 13:03:02;;;;;;;2.38;2.28;;;;;;;;;;5026144;28;20022;-80
2022/11/06 13:05:35;;;;;;;4.82;4.53;;;;;;;;;;5019516;28;20038;-81
2022/11/06 13:08:20;;;;;;;18.52;15.55;;;;;;;;;;5028587;28;20042;-81
2022/11/06 13:10:51;;;;;;;12.93;11.60;;;;;;;;;;5012999;28;20037;-80
2022/11/06 13:13:43;;;;;;;46.45;24.42;;;;;;;;;;5034958;28;20029;-81
2022/11/06 13:16:10;;;;;;;50.47;30.15;;;;;;;;;;5023524;28;20119;-82
2022/11/06 13:18:57;;;;;;;5.70;5.20;;;;;;;;;;5025302;28;20162;-81
2022/11/06 13:21:23;;;;;;;28.25;15.35;;;;;;;;;;5016546;28;20049;-81
2022/11/06 13:23:51;;;;;;;59.33;27.80;;;;;;;;;;5028470;28;20021;-83
2022/11/06 13:26:29;;;;;;;26.42;13.40;;;;;;;;;;5028216;28;20029;-81
2022/11/06 13:28:57;;;;;;;11.35;10.73;;;;;;;;;;5033619;28;20072;-81
2022/11/06 13:31:34;;;;;;;103.45;47.20;;;;;;;;;;5019229;28;20096;-81
2022/11/06 13:34:02;;;;;;;59.85;35.88;;;;;;;;;;5036778;28;20053;-81
2022/11/06 13:36:29;;;;;;;50.10;21.33;;;;;;;;;;5018895;28;20114;-82
2022/11/06 13:39:17;;;;;;;19.58;14.23;;;;;;;;;;5030636;28;20030;-82
2022/11/06 13:41:43;;;;;;;42.38;24.02;;;;;;;;;;5036017;28;20038;-82
2022/11/06 13:44:14;;;;;;;120.10;56.83;;;;;;;;;;5033953;28;20022;-81
2022/11/06 13:46:53;;;;;;;59.85;30.17;;;;;;;;;;5035302;28;20056;-81
2022/11/06 13:49:19;;;;;;;62.08;27.23;;;;;;;;;;5010764;28;20036;-83
2022/11/06 13:51:46;;;;;;;89.13;34.90;;;;;;;;;;5032562;28;20529;-81
2022/11/06 13:54:31;;;;;;;9.77;9.05;;;;;;;;;;5034374;28;20040;-81
2022/11/06 13:57:06;;;;;;;15.55;4.03;;;;;;;;;;5021208;28;20069;-81
2022/11/06 13:59:43;;;;;;;62.60;34.13;;;;;;;;;;5018155;28;20518;-81
2022/11/06 14:02:09;;;;;;;13.18;10.57;;;;;;;;;;5028061;28;20033;-81
2022/11/06 14:04:59;;;;;;;36.30;24.92;;;;;;;;;;5037245;28;20060;-81
2022/11/06 14:07:28;;;;;;;36.30;27.30;;;;;;;;;;5027290;28;20037;-81
2022/11/06 14:09:54;;;;;;;11.07;7.40;;;;;;;;;;5031926;28;20041;-81
2022/11/06 14:12:22;;;;;;;15.00;13.63;;;;;;;;;;5025872;28;20399;-81
2022/11/06 14:14:49;;;;;;;104.93;38.95;;;;;;;;;;5023441;28;20034;-81
2022/11/06 14:17:15;;;;;;;28.77;11.80;;;;;;;;;;5011648;28;20045;-82
2022/11/06 14:19:49;;;;;;;18.42;11.05;;;;;;;;;;5026052;28;20057;-81
2022/11/06 14:22:31;;;;;;;94.03;36.95;;;;;;;;;;5026396;28;20037;-81
2022/11/06 14:24:59;;;;;;;118.95;52.47;;;;;;;;;;5033342;28;20041;-82
2022/11/06 14:27:25;;;;;;;106.40;40.65;;;;;;;;;;5023726;28;20029;-82
2022/11/06 14:30:00;;;;;;;43.20;22.90;;;;;;;;;;5023753;28;20036;-81
2022/11/06 14:32:36;;;;;;;7.63;7.18;;;;;;;;;;5026223;28;20110;-81
2022/11/06 14:35:20;;;;;;;51.28;23.15;;;;;;;;;;5026847;28;20119;-82
2022/11/06 14:37:48;;;;;;;69.75;33.90;;;;;;;;;;5019549;28;20446;-82
2022/11/06 14:40:14;;;;;;;14.80;9.95;;;;;;;;;;5031636;28;20033;-82
2022/11/06 14:42:42;;;;;;;51.78;24.25;;;;;;;;;;5027146;28;20038;-82
2022/11/06 14:45:20;;;;;;;14.30;7.00;;;;;;;;;;5025228;28;20030;-82
2022/11/06 14:47:51;;;;;;;57.75;23.52;;;;;;;;;;5016917;28;20468;-82
2022/11/06 14:50:20;;;;;;;96.53;39.20;;;;;;;;;;5026310;28;20038;-83
2022/11/06 14:52:49;;;;;;;70.13;24.75;;;;;;;;;;5015561;28;20091;-83
2022/11/06 14:55:38;;;;;;;24.20;13.18;;;;;;;;;;5030634;28;20115;-83
2022/11/06 14:58:17;;;;;;;82.85;31.75;;;;;;;;;;5025021;28;20030;-81
2022/11/06 15:01:03;;;;;;;33.65;12.88;;;;;;;;;;5027271;28;20017;-81